Time;durP1;ratioP1;P1;durP2;ratioP2;P2;SDS_P1;SDS_P2;PMS_P1;PMS_P2;Temp;Humidity;BMP_temperature;BMP_pressure;BME280_temperature;BME280_humidity;BME280_pressure;Samples;Min_cycle;Max_cycle;Signal;HPM_P1;HPM_P2
2022/01/14 00:02:16;;;;;;;8.27;4.10;;;;;;;;;;5035194;28;20404;-66
2022/01/14 00:04:42;;;;;;;10.30;4.10;;;;;;;;;;5030171;28;20104;-66
2022/01/14 00:07:08;;;;;;;6.53;3.00;;;;;;;;;;5028819;28;20041;-66
2022/01/14 00:09:35;;;;;;;7.70;3.03;;;;;;;;;;5033806;28;20093;-66
2022/01/14 00:12:04;;;;;;;8.88;3.47;;;;;;;;;;5039061;28;20435;-67
2022/01/14 00:14:39;;;;;;;5.03;2.47;;;;;;;;;;5037888;28;20124;-66
2022/01/14 00:17:06;;;;;;;8.63;4.38;;;;;;;;;;5040240;28;20029;-66
2022/01/14 00:19:32;;;;;;;7.35;3.72;;;;;;;;;;5028593;28;20036;-66
2022/01/14 00:22:03;;;;;;;8.38;4.28;;;;;;;;;;5045275;28;20026;-66
2022/01/14 00:31:38;;;;;;;7.28;3.90;;;;;;;;;;5043837;28;20425;-66
2022/01/14 00:33:00;;;;;;;6.28;3.25;;;;;;;;;;5035036;28;20044;-66
2022/01/14 00:35:27;;;;;;;10.52;3.90;;;;;;;;;;5040291;28;20159;-66
2022/01/14 00:37:53;;;;;;;7.78;3.70;;;;;;;;;;5035081;28;20114;-66
2022/01/14 00:40:19;;;;;;;10.07;4.38;;;;;;;;;;5040154;28;20033;-66
2022/01/14 00:42:45;;;;;;;7.35;3.70;;;;;;;;;;5038692;28;20021;-66
2022/01/14 00:45:12;;;;;;;7.97;3.78;;;;;;;;;;5045922;28;20033;-67
2022/01/14 00:47:39;;;;;;;10.95;3.85;;;;;;;;;;5039511;28;20484;-66
2022/01/14 00:50:07;;;;;;;7.43;3.83;;;;;;;;;;5043778;28;20559;-66
2022/01/14 00:52:33;;;;;;;7.20;3.80;;;;;;;;;;5032707;28;20034;-66
2022/01/14 00:54:59;;;;;;;7.88;4.00;;;;;;;;;;5034656;28;20022;-66
2022/01/14 00:59:14;;;;;;;8.98;3.65;;;;;;;;;;5033338;28;20043;-66
2022/01/14 01:00:15;;;;;;;6.97;3.72;;;;;;;;;;5043446;28;20041;-66
2022/01/14 01:02:41;;;;;;;9.75;3.95;;;;;;;;;;5039871;28;20039;-66
2022/01/14 01:05:07;;;;;;;7.53;3.28;;;;;;;;;;5036983;28;20083;-66
2022/01/14 01:07:33;;;;;;;5.07;2.55;;;;;;;;;;5045465;28;20042;-66
2022/01/14 01:09:59;;;;;;;4.97;2.40;;;;;;;;;;5034843;28;20105;-66
2022/01/14 01:12:45;;;;;;;6.40;2.30;;;;;;;;;;5047644;28;20120;-66
2022/01/14 01:15:15;;;;;;;4.70;2.17;;;;;;;;;;5034034;28;20061;-66
2022/01/14 01:17:41;;;;;;;8.25;3.10;;;;;;;;;;5036933;28;20022;-66
2022/01/14 01:20:16;;;;;;;5.13;2.83;;;;;;;;;;5033612;28;20041;-66
2022/01/14 01:22:42;;;;;;;6.05;2.85;;;;;;;;;;5045800;28;20515;-66
2022/01/14 01:25:11;;;;;;;6.95;3.78;;;;;;;;;;5047594;28;20061;-66
2022/01/14 01:27:40;;;;;;;5.43;2.85;;;;;;;;;;5044837;28;20021;-66
2022/01/14 01:30:38;;;;;;;7.45;2.78;;;;;;;;;;5034831;28;20044;-66
2022/01/14 01:33:04;;;;;;;4.97;2.60;;;;;;;;;;5034138;28;20053;-66
2022/01/14 01:35:30;;;;;;;6.60;3.35;;;;;;;;;;5038236;28;20029;-66
2022/01/14 01:37:56;;;;;;;7.22;2.72;;;;;;;;;;5034320;28;20053;-66
2022/01/14 01:40:23;;;;;;;5.68;2.42;;;;;;;;;;5029933;28;20180;-66
2022/01/14 01:42:49;;;;;;;5.95;2.75;;;;;;;;;;5041969;28;20083;-66
2022/01/14 01:45:21;;;;;;;7.07;2.95;;;;;;;;;;5046420;28;20032;-66
2022/01/14 01:47:50;;;;;;;6.03;2.80;;;;;;;;;;5040648;28;20040;-66
2022/01/14 01:50:18;;;;;;;5.38;2.40;;;;;;;;;;5035156;28;20036;-66
2022/01/14 01:52:45;;;;;;;8.13;2.80;;;;;;;;;;5033299;28;20047;-66
2022/01/14 01:55:11;;;;;;;6.15;2.63;;;;;;;;;;5036259;28;20025;-66
2022/01/14 01:57:37;;;;;;;7.25;2.55;;;;;;;;;;5051041;28;20092;-66
2022/01/14 02:00:06;;;;;;;5.32;2.60;;;;;;;;;;5034458;28;20056;-66
2022/01/14 02:02:33;;;;;;;5.85;2.55;;;;;;;;;;5037191;28;20032;-66
2022/01/14 02:04:59;;;;;;;3.40;2.10;;;;;;;;;;5047683;28;20040;-66
2022/01/14 02:07:25;;;;;;;3.55;1.85;;;;;;;;;;5045214;28;20065;-66
2022/01/14 02:09:51;;;;;;;3.45;1.73;;;;;;;;;;5037775;28;20048;-66
2022/01/14 02:12:19;;;;;;;5.05;2.33;;;;;;;;;;5045848;28;20041;-66
2022/01/14 02:14:56;;;;;;;4.50;2.30;;;;;;;;;;5041889;28;20025;-66
2022/01/14 02:17:36;;;;;;;5.15;2.47;;;;;;;;;;5040439;28;20025;-66
2022/01/14 02:22:53;;;;;;;6.82;2.25;;;;;;;;;;5045011;28;20100;-66
2022/01/14 02:25:28;;;;;;;5.28;2.40;;;;;;;;;;5032709;28;20033;-66
2022/01/14 02:27:55;;;;;;;7.15;2.30;;;;;;;;;;5040803;28;20449;-66
2022/01/14 02:30:22;;;;;;;3.20;1.90;;;;;;;;;;5035975;28;20087;-67
2022/01/14 02:32:48;;;;;;;3.47;1.52;;;;;;;;;;5033367;28;20034;-67
2022/01/14 02:35:14;;;;;;;2.70;1.50;;;;;;;;;;5036094;28;20869;-66
2022/01/14 02:37:40;;;;;;;3.47;1.92;;;;;;;;;;5043821;28;20080;-66
2022/01/14 02:40:06;;;;;;;5.63;2.30;;;;;;;;;;5040361;28;20055;-66
2022/01/14 02:42:32;;;;;;;4.57;2.13;;;;;;;;;;5034954;28;20464;-66
2022/01/14 02:45:03;;;;;;;8.13;2.17;;;;;;;;;;5039054;28;20056;-66
2022/01/14 02:47:29;;;;;;;4.57;2.15;;;;;;;;;;5039726;28;20112;-66
2022/01/14 02:49:55;;;;;;;4.65;2.05;;;;;;;;;;5034232;28;20025;-66
2022/01/14 02:52:40;;;;;;;3.63;1.83;;;;;;;;;;5030668;28;20034;-66
2022/01/14 02:55:15;;;;;;;4.63;1.83;;;;;;;;;;5045324;28;20104;-66
2022/01/14 02:57:46;;;;;;;5.32;2.28;;;;;;;;;;5050959;28;20021;-66
2022/01/14 03:00:13;;;;;;;4.57;1.63;;;;;;;;;;5032782;28;20029;-66
2022/01/14 03:02:44;;;;;;;7.00;2.28;;;;;;;;;;5032903;28;20026;-66
2022/01/14 03:05:10;;;;;;;3.33;1.52;;;;;;;;;;5039192;28;20053;-66
2022/01/14 03:07:40;;;;;;;3.80;1.60;;;;;;;;;;5034444;28;20030;-66
2022/01/14 03:10:07;;;;;;;5.75;1.88;;;;;;;;;;5031801;28;20021;-66
2022/01/14 03:12:33;;;;;;;4.80;1.70;;;;;;;;;;5047438;28;20039;-66
2022/01/14 03:14:59;;;;;;;2.90;1.25;;;;;;;;;;5034066;28;20033;-66
2022/01/14 03:17:27;;;;;;;3.13;1.30;;;;;;;;;;5032263;28;20033;-66
2022/01/14 03:19:53;;;;;;;2.70;1.23;;;;;;;;;;5039609;28;20053;-66
2022/01/14 03:27:11;;;;;;;3.97;1.70;;;;;;;;;;5032447;28;20124;-66
2022/01/14 03:29:37;;;;;;;4.25;1.73;;;;;;;;;;5032434;28;20041;-66
2022/01/14 03:32:04;;;;;;;4.22;1.83;;;;;;;;;;5031268;28;20266;-66
2022/01/14 03:34:30;;;;;;;2.72;1.60;;;;;;;;;;5030006;28;20477;-66
2022/01/14 03:36:56;;;;;;;3.10;1.55;;;;;;;;;;5032691;28;20049;-66
2022/01/14 03:39:23;;;;;;;4.35;1.70;;;;;;;;;;5033118;28;20042;-66
2022/01/14 03:41:49;;;;;;;3.80;2.00;;;;;;;;;;5033061;28;20040;-66
2022/01/14 03:44:16;;;;;;;3.67;1.58;;;;;;;;;;5035220;28;20028;-66
2022/01/14 03:46:41;;;;;;;2.63;1.25;;;;;;;;;;5043284;28;20060;-66
2022/01/14 03:49:08;;;;;;;1.65;1.02;;;;;;;;;;5030199;28;20062;-67
2022/01/14 03:51:34;;;;;;;2.42;1.30;;;;;;;;;;5044727;28;20080;-66
2022/01/14 03:54:00;;;;;;;4.18;1.00;;;;;;;;;;5032261;28;20038;-66
2022/01/14 03:56:26;;;;;;;3.47;1.80;;;;;;;;;;5032120;28;20022;-66
2022/01/14 03:58:53;;;;;;;2.45;1.23;;;;;;;;;;5032019;28;20021;-66
2022/01/14 04:01:19;;;;;;;1.88;1.00;;;;;;;;;;5040452;28;20033;-66
2022/01/14 04:03:46;;;;;;;2.67;1.48;;;;;;;;;;5035449;28;20040;-66
2022/01/14 04:06:13;;;;;;;3.20;1.70;;;;;;;;;;5034600;28;20033;-65
2022/01/14 04:08:39;;;;;;;3.45;1.77;;;;;;;;;;5038126;28;20057;-66
2022/01/14 04:11:05;;;;;;;4.15;1.73;;;;;;;;;;5035191;28;20067;-66
2022/01/14 04:13:53;;;;;;;3.63;1.52;;;;;;;;;;5032512;28;20044;-67
2022/01/14 04:16:20;;;;;;;3.72;1.35;;;;;;;;;;5042999;28;20100;-66
2022/01/14 04:18:48;;;;;;;2.80;1.50;;;;;;;;;;5046716;28;20087;-66
2022/01/14 04:21:13;;;;;;;2.85;1.40;;;;;;;;;;5043390;28;20288;-66
2022/01/14 04:23:39;;;;;;;2.30;1.17;;;;;;;;;;5044695;28;20104;-66
2022/01/14 04:26:05;;;;;;;4.72;1.65;;;;;;;;;;5043705;28;20550;-65
2022/01/14 04:28:35;;;;;;;2.72;1.25;;;;;;;;;;5033722;28;20026;-65
2022/01/14 04:31:02;;;;;;;2.70;1.23;;;;;;;;;;5032503;28;20032;-66
2022/01/14 04:33:30;;;;;;;2.80;1.13;;;;;;;;;;5037910;28;20061;-66
2022/01/14 04:36:00;;;;;;;4.18;1.25;;;;;;;;;;5034941;28;20397;-66
2022/01/14 04:38:26;;;;;;;3.55;1.40;;;;;;;;;;5036212;28;20441;-66
2022/01/14 04:40:53;;;;;;;3.92;1.50;;;;;;;;;;5038097;28;20515;-66
2022/01/14 04:43:20;;;;;;;2.28;1.27;;;;;;;;;;5032180;28;20030;-66
2022/01/14 04:48:37;;;;;;;2.80;1.33;;;;;;;;;;5025877;28;20045;-66
2022/01/14 04:51:06;;;;;;;4.13;1.60;;;;;;;;;;5039936;28;20025;-66
2022/01/14 04:53:33;;;;;;;1.73;1.17;;;;;;;;;;5041881;28;20037;-66
2022/01/14 04:55:59;;;;;;;4.43;1.48;;;;;;;;;;5045342;28;20473;-66
2022/01/14 04:58:26;;;;;;;3.10;1.55;;;;;;;;;;5046585;28;20068;-66
2022/01/14 05:00:52;;;;;;;3.33;1.48;;;;;;;;;;5036407;28;20021;-66
2022/01/14 05:03:18;;;;;;;2.42;1.30;;;;;;;;;;5034920;28;20030;-66
2022/01/14 05:05:47;;;;;;;3.10;1.65;;;;;;;;;;5038572;28;20365;-66
2022/01/14 05:08:47;;;;;;;2.28;1.20;;;;;;;;;;5041386;28;20052;-66
2022/01/14 05:13:45;;;;;;;;;;;;;;;;;;5046251;28;20037;-66
2022/01/14 05:16:11;;;;;;;2.08;0.88;;;;;;;;;;5048967;28;19971;-66
2022/01/14 05:18:38;;;;;;;3.17;0.90;;;;;;;;;;5051816;28;20017;-66
2022/01/14 05:21:05;;;;;;;3.53;1.42;;;;;;;;;;5042788;28;20060;-66
2022/01/14 05:23:31;;;;;;;2.72;1.58;;;;;;;;;;5045634;28;20017;-67
2022/01/14 05:25:57;;;;;;;2.28;1.17;;;;;;;;;;5044358;28;20102;-67
2022/01/14 05:28:23;;;;;;;2.20;1.15;;;;;;;;;;5039474;28;20033;-67
2022/01/14 05:30:49;;;;;;;2.40;1.10;;;;;;;;;;5036187;28;20030;-66
2022/01/14 05:33:16;;;;;;;2.50;1.10;;;;;;;;;;5034592;28;20049;-66
2022/01/14 05:35:42;;;;;;;3.25;1.00;;;;;;;;;;5044182;28;20071;-67
2022/01/14 05:38:08;;;;;;;3.30;1.10;;;;;;;;;;5043253;28;20049;-67
2022/01/14 05:40:34;;;;;;;4.22;1.60;;;;;;;;;;5039481;28;20057;-66
2022/01/14 05:43:01;;;;;;;2.90;1.67;;;;;;;;;;5039515;28;20029;-66
2022/01/14 05:45:27;;;;;;;4.78;2.45;;;;;;;;;;5033867;28;20021;-67
2022/01/14 05:47:54;;;;;;;6.95;3.83;;;;;;;;;;5042667;28;20033;-66
2022/01/14 05:50:21;;;;;;;6.38;2.88;;;;;;;;;;5035257;28;20557;-66
2022/01/14 05:52:47;;;;;;;3.88;1.83;;;;;;;;;;5030446;28;20448;-68
2022/01/14 05:55:15;;;;;;;4.05;1.85;;;;;;;;;;5030796;28;20026;-66
2022/01/14 05:57:41;;;;;;;2.78;1.42;;;;;;;;;;5032365;28;20431;-66
2022/01/14 06:00:15;;;;;;;3.08;1.50;;;;;;;;;;5029665;28;20029;-67
2022/01/14 06:02:41;;;;;;;3.03;1.45;;;;;;;;;;5035338;28;20024;-67
2022/01/14 06:05:07;;;;;;;3.30;1.70;;;;;;;;;;5043929;28;20079;-67
2022/01/14 06:07:33;;;;;;;4.00;1.38;;;;;;;;;;5046915;28;20026;-67
2022/01/14 06:09:59;;;;;;;3.08;1.35;;;;;;;;;;5030750;28;20037;-67
2022/01/14 06:12:25;;;;;;;3.67;1.77;;;;;;;;;;5032871;28;20117;-67
2022/01/14 06:14:51;;;;;;;3.55;1.30;;;;;;;;;;5031384;28;20064;-67
2022/01/14 06:17:17;;;;;;;3.10;1.30;;;;;;;;;;5031126;28;20025;-67
2022/01/14 06:19:43;;;;;;;3.00;1.33;;;;;;;;;;5032879;28;20025;-67
2022/01/14 06:22:09;;;;;;;3.03;1.35;;;;;;;;;;5031971;28;20083;-66
2022/01/14 06:24:35;;;;;;;3.08;1.52;;;;;;;;;;5031822;28;20025;-66
2022/01/14 06:27:01;;;;;;;3.13;1.20;;;;;;;;;;5033508;28;20500;-66
2022/01/14 06:29:27;;;;;;;1.95;1.05;;;;;;;;;;5030018;28;20029;-66
2022/01/14 06:31:53;;;;;;;2.65;1.15;;;;;;;;;;5030995;28;20037;-66
2022/01/14 06:34:19;;;;;;;6.60;2.50;;;;;;;;;;5028242;28;20040;-66
2022/01/14 06:36:45;;;;;;;8.38;4.90;;;;;;;;;;5032771;28;20116;-67
2022/01/14 06:39:11;;;;;;;8.18;4.57;;;;;;;;;;5030554;28;20555;-66
2022/01/14 06:41:37;;;;;;;6.07;3.70;;;;;;;;;;5030688;28;20118;-66
2022/01/14 06:44:04;;;;;;;2.97;1.45;;;;;;;;;;5032458;28;20025;-65
2022/01/14 06:46:30;;;;;;;4.35;1.85;;;;;;;;;;5032132;28;20076;-65
2022/01/14 06:48:56;;;;;;;3.03;1.80;;;;;;;;;;5033001;28;20447;-67
2022/01/14 06:51:27;;;;;;;3.72;2.10;;;;;;;;;;5032462;28;20108;-65
2022/01/14 06:53:53;;;;;;;6.15;2.80;;;;;;;;;;5030078;28;20037;-66
2022/01/14 06:56:19;;;;;;;3.88;2.33;;;;;;;;;;5032045;28;20032;-65
2022/01/14 06:58:45;;;;;;;4.07;0.88;;;;;;;;;;5030757;28;20033;-66
2022/01/14 07:01:11;;;;;;;2.67;1.70;;;;;;;;;;5030296;28;20057;-65
2022/01/14 07:03:37;;;;;;;2.20;1.40;;;;;;;;;;5030616;28;20034;-65
2022/01/14 07:06:03;;;;;;;2.80;1.50;;;;;;;;;;5030381;28;20369;-65
2022/01/14 07:08:29;;;;;;;3.40;1.75;;;;;;;;;;5032015;28;20117;-66
2022/01/14 07:10:55;;;;;;;3.53;1.55;;;;;;;;;;5030931;28;20033;-66
2022/01/14 07:13:21;;;;;;;2.33;1.30;;;;;;;;;;5030480;28;20052;-65
2022/01/14 07:15:47;;;;;;;2.13;1.02;;;;;;;;;;5032109;28;20022;-65
2022/01/14 07:18:15;;;;;;;1.83;1.02;;;;;;;;;;5030502;28;20034;-65
2022/01/14 07:20:42;;;;;;;1.42;1.05;;;;;;;;;;5034490;28;20025;-65
2022/01/14 07:23:08;;;;;;;2.58;1.30;;;;;;;;;;5039503;28;20464;-65
2022/01/14 07:25:34;;;;;;;2.00;1.08;;;;;;;;;;5029148;28;20022;-65
2022/01/14 07:28:00;;;;;;;2.83;1.50;;;;;;;;;;5032034;28;20030;-65
2022/01/14 07:30:26;;;;;;;4.22;1.92;;;;;;;;;;5032478;28;20025;-65
2022/01/14 07:32:52;;;;;;;2.63;1.30;;;;;;;;;;5031107;28;20405;-65
2022/01/14 07:35:18;;;;;;;1.20;0.70;;;;;;;;;;5031893;28;20036;-65
2022/01/14 07:37:44;;;;;;;2.83;1.45;;;;;;;;;;5031097;28;20053;-65
2022/01/14 07:40:10;;;;;;;2.70;1.35;;;;;;;;;;5028405;28;20034;-65
2022/01/14 07:42:36;;;;;;;2.85;1.10;;;;;;;;;;5032928;28;20562;-65
2022/01/14 07:45:03;;;;;;;2.70;1.40;;;;;;;;;;5029618;28;20117;-65
2022/01/14 07:47:29;;;;;;;2.70;1.42;;;;;;;;;;5030326;28;20536;-64
2022/01/14 07:49:55;;;;;;;2.85;1.20;;;;;;;;;;5032544;28;20052;-65
2022/01/14 07:52:21;;;;;;;1.23;0.63;;;;;;;;;;5027244;28;20449;-65
2022/01/14 07:54:47;;;;;;;5.32;1.90;;;;;;;;;;5033767;28;20053;-65
2022/01/14 07:57:13;;;;;;;1.60;1.00;;;;;;;;;;5031739;28;20396;-65
2022/01/14 07:59:40;;;;;;;2.45;1.48;;;;;;;;;;5031813;28;20076;-65
2022/01/14 08:02:06;;;;;;;3.15;1.42;;;;;;;;;;5031993;28;20029;-65
2022/01/14 08:04:35;;;;;;;3.05;1.50;;;;;;;;;;5029688;28;20968;-65
2022/01/14 08:07:08;;;;;;;3.42;1.50;;;;;;;;;;5031586;28;20029;-65
2022/01/14 08:09:36;;;;;;;2.92;1.27;;;;;;;;;;5034186;28;20033;-65
2022/01/14 08:12:02;;;;;;;4.15;1.50;;;;;;;;;;5032039;28;20025;-65
2022/01/14 08:14:28;;;;;;;3.33;1.40;;;;;;;;;;5036382;28;20082;-65
2022/01/14 08:16:54;;;;;;;2.50;1.50;;;;;;;;;;5042477;28;20033;-65
2022/01/14 08:19:20;;;;;;;3.80;1.70;;;;;;;;;;5028648;28;20029;-65
2022/01/14 08:21:46;;;;;;;4.63;1.80;;;;;;;;;;5047011;28;20069;-65
2022/01/14 08:24:12;;;;;;;4.97;2.10;;;;;;;;;;5031720;28;20048;-65
2022/01/14 08:26:38;;;;;;;2.95;1.45;;;;;;;;;;5031323;28;20099;-65
2022/01/14 08:29:04;;;;;;;3.67;1.85;;;;;;;;;;5031089;28;20516;-64
2022/01/14 08:31:30;;;;;;;3.38;1.80;;;;;;;;;;5028938;28;20057;-66
2022/01/14 08:33:56;;;;;;;2.92;1.73;;;;;;;;;;5032035;28;20029;-64
2022/01/14 08:36:23;;;;;;;5.47;3.22;;;;;;;;;;5032695;28;20032;-64
2022/01/14 08:38:51;;;;;;;5.32;3.22;;;;;;;;;;5031712;28;20099;-64
2022/01/14 08:41:17;;;;;;;6.05;3.50;;;;;;;;;;5031511;28;20024;-67
2022/01/14 08:43:43;;;;;;;8.52;3.78;;;;;;;;;;5029758;28;20510;-65
2022/01/14 08:46:09;;;;;;;4.43;3.00;;;;;;;;;;5029410;28;20038;-67
2022/01/14 08:48:35;;;;;;;4.68;2.53;;;;;;;;;;5034039;28;20041;-65
2022/01/14 08:51:02;;;;;;;3.60;1.90;;;;;;;;;;5032963;28;20488;-67
2022/01/14 08:53:28;;;;;;;5.18;2.50;;;;;;;;;;5033700;28;20033;-66
2022/01/14 08:55:54;;;;;;;5.82;2.60;;;;;;;;;;5034946;28;20033;-67
2022/01/14 08:58:20;;;;;;;3.42;1.85;;;;;;;;;;5030722;28;20029;-66
2022/01/14 09:00:48;;;;;;;5.32;2.30;;;;;;;;;;5038279;28;20095;-66
2022/01/14 09:03:14;;;;;;;6.97;3.80;;;;;;;;;;5036981;28;20169;-66
2022/01/14 09:05:40;;;;;;;8.32;4.82;;;;;;;;;;5035016;28;20021;-66
2022/01/14 09:08:06;;;;;;;5.93;2.53;;;;;;;;;;5033722;28;20037;-66
2022/01/14 09:10:32;;;;;;;5.60;2.85;;;;;;;;;;5032263;28;20030;-66
2022/01/14 09:12:58;;;;;;;3.95;1.70;;;;;;;;;;5034949;28;20038;-65
2022/01/14 09:15:24;;;;;;;5.30;2.67;;;;;;;;;;5048725;28;20040;-65
2022/01/14 09:17:50;;;;;;;4.38;2.08;;;;;;;;;;5037416;28;20029;-65
2022/01/14 09:20:16;;;;;;;3.63;2.05;;;;;;;;;;5035931;28;20025;-66
2022/01/14 09:22:48;;;;;;;3.97;2.28;;;;;;;;;;5041678;28;20057;-66
2022/01/14 09:25:14;;;;;;;5.57;2.50;;;;;;;;;;5036669;28;20022;-66
2022/01/14 09:27:40;;;;;;;3.78;2.30;;;;;;;;;;5049564;28;20013;-66
2022/01/14 09:30:06;;;;;;;4.22;2.17;;;;;;;;;;5035405;28;20383;-66
2022/01/14 09:32:32;;;;;;;4.18;2.25;;;;;;;;;;5034727;28;20030;-65
2022/01/14 09:35:02;;;;;;;6.47;2.60;;;;;;;;;;5036438;28;20127;-65
2022/01/14 09:37:28;;;;;;;4.93;2.42;;;;;;;;;;5035861;28;20120;-65
2022/01/14 09:39:54;;;;;;;4.38;2.30;;;;;;;;;;5042579;28;20037;-65
2022/01/14 09:42:20;;;;;;;4.30;2.42;;;;;;;;;;5032404;28;20076;-65
2022/01/14 09:44:46;;;;;;;5.63;2.10;;;;;;;;;;5040514;28;20079;-66
2022/01/14 09:47:19;;;;;;;4.75;2.55;;;;;;;;;;5042050;28;20029;-65
2022/01/14 09:49:46;;;;;;;4.45;2.28;;;;;;;;;;5043183;28;20032;-65
2022/01/14 09:52:12;;;;;;;6.55;2.20;;;;;;;;;;5044206;28;20177;-66
2022/01/14 09:54:40;;;;;;;3.22;1.70;;;;;;;;;;5041961;28;20037;-65
2022/01/14 09:57:08;;;;;;;2.83;1.70;;;;;;;;;;5033641;28;20026;-65
2022/01/14 09:59:34;;;;;;;2.70;1.58;;;;;;;;;;5032209;28;20041;-65
2022/01/14 10:02:00;;;;;;;3.67;2.00;;;;;;;;;;5034056;28;20522;-65
2022/01/14 10:04:26;;;;;;;3.58;1.70;;;;;;;;;;5030306;28;20034;-65
2022/01/14 10:06:54;;;;;;;3.33;1.60;;;;;;;;;;5034691;28;20156;-66
2022/01/14 10:09:22;;;;;;;2.15;1.40;;;;;;;;;;5035669;28;20496;-65
2022/01/14 10:12:05;;;;;;;2.42;1.40;;;;;;;;;;5033610;28;20495;-65
2022/01/14 10:14:32;;;;;;;9.35;4.10;;;;;;;;;;5039111;28;20044;-65
2022/01/14 10:17:00;;;;;;;14.07;4.60;;;;;;;;;;5043372;28;20024;-66
2022/01/14 10:19:27;;;;;;;8.18;3.40;;;;;;;;;;5031373;28;20513;-65
2022/01/14 10:21:54;;;;;;;14.18;5.68;;;;;;;;;;5034383;28;20029;-66
2022/01/14 10:24:21;;;;;;;10.65;4.95;;;;;;;;;;5034077;28;20041;-66
2022/01/14 10:26:48;;;;;;;12.38;5.05;;;;;;;;;;5033392;28;20026;-63
2022/01/14 10:29:14;;;;;;;9.50;4.93;;;;;;;;;;5031035;28;20021;-64
2022/01/14 10:31:42;;;;;;;5.47;2.65;;;;;;;;;;5031515;28;20480;-66
2022/01/14 10:34:14;;;;;;;8.10;2.95;;;;;;;;;;5032027;28;20028;-64
2022/01/14 10:36:44;;;;;;;5.15;2.38;;;;;;;;;;5051326;28;20095;-65
2022/01/14 10:39:21;;;;;;;5.15;2.40;;;;;;;;;;5043726;28;20470;-64
2022/01/14 10:41:47;;;;;;;5.90;2.80;;;;;;;;;;5033369;28;20472;-65
2022/01/14 10:44:23;;;;;;;5.72;2.70;;;;;;;;;;5030337;28;20045;-65
2022/01/14 10:46:49;;;;;;;4.63;2.22;;;;;;;;;;5032856;28;20056;-64
2022/01/14 10:49:32;;;;;;;3.53;1.40;;;;;;;;;;5041766;28;20061;-64
2022/01/14 10:52:16;;;;;;;2.88;1.40;;;;;;;;;;5039933;28;20115;-64
2022/01/14 10:54:47;;;;;;;3.38;1.60;;;;;;;;;;5048389;28;20453;-64
2022/01/14 10:57:14;;;;;;;4.53;1.42;;;;;;;;;;5032711;28;20112;-65
2022/01/14 10:59:40;;;;;;;2.90;1.52;;;;;;;;;;5031362;28;20055;-64
2022/01/14 11:02:25;;;;;;;2.20;1.27;;;;;;;;;;5035232;28;20037;-65
2022/01/14 11:05:08;;;;;;;1.20;0.80;;;;;;;;;;5031570;28;20045;-64
2022/01/14 11:07:34;;;;;;;1.95;0.90;;;;;;;;;;5024970;28;20035;-64
2022/01/14 11:10:01;;;;;;;1.88;0.93;;;;;;;;;;5031555;28;20068;-64
2022/01/14 11:12:29;;;;;;;1.58;0.60;;;;;;;;;;5032107;28;20022;-64
2022/01/14 11:14:55;;;;;;;;;;;;;;;;;;5033353;28;20036;-64
2022/01/14 11:17:21;;;;;;;1.73;1.00;;;;;;;;;;5032190;28;20377;-65
2022/01/14 11:19:47;;;;;;;3.08;1.13;;;;;;;;;;5031488;28;20049;-64
2022/01/14 11:24:59;;;;;;;0.73;0.60;;;;;;;;;;5034148;28;20040;-66
2022/01/14 11:27:26;;;;;;;1.92;0.90;;;;;;;;;;5027699;28;20040;-64
2022/01/14 11:29:57;;;;;;;3.58;1.30;;;;;;;;;;5030905;28;20070;-63
2022/01/14 11:32:24;;;;;;;2.03;1.00;;;;;;;;;;5028309;28;20026;-65
2022/01/14 11:34:51;;;;;;;1.83;0.80;;;;;;;;;;5028806;28;20078;-65
2022/01/14 11:37:31;;;;;;;1.38;0.80;;;;;;;;;;5028163;28;20044;-63
2022/01/14 11:40:03;;;;;;;0.88;0.57;;;;;;;;;;5028505;28;20083;-65
2022/01/14 11:42:45;;;;;;;1.08;0.63;;;;;;;;;;5031987;28;20021;-65
2022/01/14 11:45:12;;;;;;;1.13;0.70;;;;;;;;;;5030494;28;20033;-63
2022/01/14 11:47:44;;;;;;;0.82;0.52;;;;;;;;;;5028021;28;20025;-63
2022/01/14 11:50:19;;;;;;;0.82;0.50;;;;;;;;;;5029240;28;20029;-62
2022/01/14 11:52:46;;;;;;;0.63;0.50;;;;;;;;;;5027573;28;20033;-63
2022/01/14 11:55:15;;;;;;;0.85;0.45;;;;;;;;;;5031209;28;20497;-64
2022/01/14 11:57:44;;;;;;;0.68;0.50;;;;;;;;;;5031760;28;20025;-63
2022/01/14 12:00:32;;;;;;;1.38;0.60;;;;;;;;;;5029260;28;20029;-63
2022/01/14 12:03:00;;;;;;;1.55;0.57;;;;;;;;;;5025579;28;20045;-64
2022/01/14 12:05:27;;;;;;;1.17;0.70;;;;;;;;;;5029295;28;20109;-65
2022/01/14 12:08:02;;;;;;;0.77;0.40;;;;;;;;;;5028512;28;20040;-64
2022/01/14 12:10:32;;;;;;;0.85;0.35;;;;;;;;;;5026743;28;20480;-63
2022/01/14 12:13:20;;;;;;;0.88;0.43;;;;;;;;;;5029197;28;20477;-67
2022/01/14 12:15:55;;;;;;;1.70;0.40;;;;;;;;;;5029713;28;20472;-66
2022/01/14 12:18:40;;;;;;;1.15;0.38;;;;;;;;;;5029259;28;20021;-65
2022/01/14 12:21:06;;;;;;;0.93;0.40;;;;;;;;;;5024984;28;20033;-67
2022/01/14 12:23:32;;;;;;;1.58;0.47;;;;;;;;;;5028739;28;20021;-66
2022/01/14 12:26:12;;;;;;;0.17;0.10;;;;;;;;;;5028339;28;20029;-66
2022/01/14 12:28:38;;;;;;;0.40;0.30;;;;;;;;;;5028145;28;20346;-67
2022/01/14 12:31:04;;;;;;;0.80;0.35;;;;;;;;;;5031203;28;20101;-67
2022/01/14 12:33:45;;;;;;;0.10;0.10;;;;;;;;;;5034003;28;20033;-67
2022/01/14 12:36:29;;;;;;;0.10;0.10;;;;;;;;;;5033106;28;20030;-67
2022/01/14 12:38:55;;;;;;;0.20;0.20;;;;;;;;;;5031662;28;20045;-67
2022/01/14 12:41:23;;;;;;;1.60;0.45;;;;;;;;;;5031247;28;20101;-67
2022/01/14 12:43:49;;;;;;;0.80;0.20;;;;;;;;;;5031825;28;20393;-67
2022/01/14 12:46:35;;;;;;;0.65;0.20;;;;;;;;;;5035956;28;20033;-67
2022/01/14 12:49:06;;;;;;;0.50;0.28;;;;;;;;;;5031385;28;20484;-67
2022/01/14 12:51:32;;;;;;;0.88;0.28;;;;;;;;;;5035082;28;20069;-67
2022/01/14 12:53:59;;;;;;;0.30;0.20;;;;;;;;;;5034831;28;20036;-67
2022/01/14 12:56:30;;;;;;;0.35;0.20;;;;;;;;;;5031425;28;20029;-67
2022/01/14 12:58:58;;;;;;;0.30;0.20;;;;;;;;;;5031139;28;20021;-67
2022/01/14 13:01:28;;;;;;;0.68;0.40;;;;;;;;;;5030895;28;20030;-67
2022/01/14 13:03:55;;;;;;;0.32;0.25;;;;;;;;;;5033134;28;20040;-67
2022/01/14 13:06:21;;;;;;;2.13;0.82;;;;;;;;;;5033453;28;20045;-67
2022/01/14 13:08:57;;;;;;;0.65;0.50;;;;;;;;;;5030844;28;20370;-67
2022/01/14 13:11:23;;;;;;;0.85;0.45;;;;;;;;;;5032384;28;20487;-67
2022/01/14 13:14:05;;;;;;;0.28;0.25;;;;;;;;;;5035259;28;20492;-67
2022/01/14 13:16:48;;;;;;;0.88;0.35;;;;;;;;;;5033210;28;20029;-69
2022/01/14 13:19:34;;;;;;;1.15;0.38;;;;;;;;;;5032630;28;20092;-67
2022/01/14 13:22:02;;;;;;;1.25;0.50;;;;;;;;;;5030567;28;20408;-67
2022/01/14 13:24:29;;;;;;;1.15;0.50;;;;;;;;;;5036981;28;20032;-67
2022/01/14 13:27:06;;;;;;;0.50;0.30;;;;;;;;;;5035566;28;20435;-67
2022/01/14 13:29:39;;;;;;;0.57;0.50;;;;;;;;;;5031057;28;20063;-69
2022/01/14 13:32:05;;;;;;;1.00;0.65;;;;;;;;;;5029428;28;20029;-66
2022/01/14 13:34:32;;;;;;;0.90;0.60;;;;;;;;;;5030767;28;20033;-67
2022/01/14 13:36:58;;;;;;;38.10;21.77;;;;;;;;;;5036813;28;20049;-67
2022/01/14 13:39:24;;;;;;;34.42;17.48;;;;;;;;;;5035031;28;20087;-68
2022/01/14 13:41:50;;;;;;;6.13;2.00;;;;;;;;;;5041715;28;20024;-67
2022/01/14 13:44:20;;;;;;;3.42;2.05;;;;;;;;;;5045442;28;20483;-67
2022/01/14 13:46:54;;;;;;;2.15;1.30;;;;;;;;;;5046200;28;20025;-67
2022/01/14 13:49:22;;;;;;;5.35;1.88;;;;;;;;;;5035853;28;20096;-68
2022/01/14 13:52:01;;;;;;;3.38;1.60;;;;;;;;;;5044400;28;20021;-68
2022/01/14 13:54:27;;;;;;;8.15;3.33;;;;;;;;;;5037162;28;20045;-68
2022/01/14 13:56:53;;;;;;;5.43;2.28;;;;;;;;;;5038657;28;20518;-67
2022/01/14 13:59:20;;;;;;;3.28;1.88;;;;;;;;;;5040791;28;20107;-68
2022/01/14 14:01:53;;;;;;;4.07;2.08;;;;;;;;;;5032609;28;20029;-67
2022/01/14 14:04:26;;;;;;;3.47;2.20;;;;;;;;;;5013993;28;20037;-67
2022/01/14 14:07:03;;;;;;;6.68;2.10;;;;;;;;;;5044204;28;20464;-66
2022/01/14 14:09:56;;;;;;;4.63;2.08;;;;;;;;;;5035152;28;20033;-67
2022/01/14 14:12:37;;;;;;;3.45;1.75;;;;;;;;;;5036131;28;20037;-67
2022/01/14 14:18:04;;;;;;;3.00;1.08;;;;;;;;;;5037934;28;20072;-67
2022/01/14 14:20:30;;;;;;;2.65;1.30;;;;;;;;;;5041124;28;20032;-67
2022/01/14 14:22:56;;;;;;;2.03;1.00;;;;;;;;;;5032184;28;20025;-67
2022/01/14 14:25:31;;;;;;;2.28;0.90;;;;;;;;;;5032319;28;20028;-67
2022/01/14 14:27:59;;;;;;;4.60;1.80;;;;;;;;;;5042838;28;20465;-67
2022/01/14 14:30:27;;;;;;;5.97;2.30;;;;;;;;;;5036253;28;20201;-67
2022/01/14 14:32:53;;;;;;;4.47;2.50;;;;;;;;;;5032851;28;20030;-67
2022/01/14 14:35:20;;;;;;;7.20;2.20;;;;;;;;;;5036735;28;20056;-67
2022/01/14 14:37:49;;;;;;;5.40;2.50;;;;;;;;;;5044137;28;20033;-67
2022/01/14 14:40:18;;;;;;;6.43;2.55;;;;;;;;;;5030367;28;20033;-67
2022/01/14 14:42:45;;;;;;;4.38;2.00;;;;;;;;;;5043221;28;20036;-67
2022/01/14 14:45:11;;;;;;;4.95;2.13;;;;;;;;;;5033081;28;20045;-67
2022/01/14 14:47:39;;;;;;;4.50;2.53;;;;;;;;;;5038844;28;20095;-69
2022/01/14 14:50:06;;;;;;;4.18;2.03;;;;;;;;;;5042681;28;20060;-66
2022/01/14 14:52:34;;;;;;;6.17;2.17;;;;;;;;;;5029666;28;20022;-66
2022/01/14 14:55:00;;;;;;;5.27;1.77;;;;;;;;;;5048872;28;20261;-67
2022/01/14 14:57:26;;;;;;;5.22;2.15;;;;;;;;;;5036604;28;20500;-67
2022/01/14 14:59:52;;;;;;;5.15;2.30;;;;;;;;;;5032582;28;20072;-69
2022/01/14 15:02:18;;;;;;;3.20;1.67;;;;;;;;;;5032708;28;20132;-67
2022/01/14 15:04:44;;;;;;;8.13;4.45;;;;;;;;;;5030868;28;20035;-67
2022/01/14 15:07:10;;;;;;;8.63;3.20;;;;;;;;;;5045099;28;20052;-67
2022/01/14 15:09:36;;;;;;;6.60;3.00;;;;;;;;;;5042411;28;20456;-67
2022/01/14 15:12:06;;;;;;;7.10;3.60;;;;;;;;;;5034214;28;20095;-67
2022/01/14 15:14:33;;;;;;;14.70;7.80;;;;;;;;;;5043024;28;20037;-67
2022/01/14 15:19:29;;;;;;;10.43;4.82;;;;;;;;;;5031656;28;20041;-67